sensor_id;sensor_type;location;lat;lon;timestamp;temperature;humidity
46676;DHT22;32412;51.478;5.694;2024-01-15T00:01:49;1.20;99.90
46676;DHT22;32412;51.478;5.694;2024-01-15T00:04:15;1.20;99.90
46676;DHT22;32412;51.478;5.694;2024-01-15T00:06:41;1.20;99.90
46676;DHT22;32412;51.478;5.694;2024-01-15T00:09:06;1.20;99.90
46676;DHT22;32412;51.478;5.694;2024-01-15T00:11:32;1.30;99.90
46676;DHT22;32412;51.478;5.694;2024-01-15T00:13:58;1.20;99.90
46676;DHT22;32412;51.478;5.694;2024-01-15T00:16:24;1.20;99.90
46676;DHT22;32412;51.478;5.694;2024-01-15T00:18:49;1.20;99.90
46676;DHT22;32412;51.478;5.694;2024-01-15T00:21:15;1.20;99.90
46676;DHT22;32412;51.478;5.694;2024-01-15T00:23:44;1.20;99.90
46676;DHT22;32412;51.478;5.694;2024-01-15T00:26:11;1.20;99.90
46676;DHT22;32412;51.478;5.694;2024-01-15T00:28:37;1.20;99.90
46676;DHT22;32412;51.478;5.694;2024-01-15T00:31:04;1.20;99.90
46676;DHT22;32412;51.478;5.694;2024-01-15T00:33:29;1.20;99.90
46676;DHT22;32412;51.478;5.694;2024-01-15T00:35:55;1.10;99.90
46676;DHT22;32412;51.478;5.694;2024-01-15T00:38:21;1.20;99.90
46676;DHT22;32412;51.478;5.694;2024-01-15T00:40:46;1.10;99.90
46676;DHT22;32412;51.478;5.694;2024-01-15T00:43:12;1.10;99.90
46676;DHT22;32412;51.478;5.694;2024-01-15T00:45:38;1.10;99.90
46676;DHT22;32412;51.478;5.694;2024-01-15T00:48:04;1.20;99.90
46676;DHT22;32412;51.478;5.694;2024-01-15T00:50:30;1.20;99.90
46676;DHT22;32412;51.478;5.694;2024-01-15T00:52:55;1.20;99.90
46676;DHT22;32412;51.478;5.694;2024-01-15T00:55:21;1.20;99.90
46676;DHT22;32412;51.478;5.694;2024-01-15T00:57:47;1.20;99.90
46676;DHT22;32412;51.478;5.694;2024-01-15T01:00:12;1.20;99.90
46676;DHT22;32412;51.478;5.694;2024-01-15T01:02:38;1.20;99.90
46676;DHT22;32412;51.478;5.694;2024-01-15T01:05:04;1.20;99.90
46676;DHT22;32412;51.478;5.694;2024-01-15T01:07:30;1.20;99.90
46676;DHT22;32412;51.478;5.694;2024-01-15T01:09:55;1.20;99.90
46676;DHT22;32412;51.478;5.694;2024-01-15T01:12:21;1.20;99.90
46676;DHT22;32412;51.478;5.694;2024-01-15T01:14:47;1.20;99.90
46676;DHT22;32412;51.478;5.694;2024-01-15T01:17:12;1.20;99.90
46676;DHT22;32412;51.478;5.694;2024-01-15T01:19:38;1.20;99.90
46676;DHT22;32412;51.478;5.694;2024-01-15T01:22:04;1.10;99.90
46676;DHT22;32412;51.478;5.694;2024-01-15T01:24:29;1.10;99.90
46676;DHT22;32412;51.478;5.694;2024-01-15T01:26:55;1.10;99.90
46676;DHT22;32412;51.478;5.694;2024-01-15T01:29:21;1.20;99.90
46676;DHT22;32412;51.478;5.694;2024-01-15T01:31:47;1.20;99.90
46676;DHT22;32412;51.478;5.694;2024-01-15T01:34:16;1.20;99.90
46676;DHT22;32412;51.478;5.694;2024-01-15T01:36:42;1.30;99.90
46676;DHT22;32412;51.478;5.694;2024-01-15T01:39:08;1.20;99.90
46676;DHT22;32412;51.478;5.694;2024-01-15T01:41:35;1.20;99.90
46676;DHT22;32412;51.478;5.694;2024-01-15T01:44:00;1.20;99.90
46676;DHT22;32412;51.478;5.694;2024-01-15T01:46:27;1.20;99.90
46676;DHT22;32412;51.478;5.694;2024-01-15T01:48:54;1.30;99.90
46676;DHT22;32412;51.478;5.694;2024-01-15T01:51:22;1.20;99.90
46676;DHT22;32412;51.478;5.694;2024-01-15T01:53:49;1.20;99.90
46676;DHT22;32412;51.478;5.694;2024-01-15T01:56:15;1.20;99.90
46676;DHT22;32412;51.478;5.694;2024-01-15T01:58:42;1.20;99.90
46676;DHT22;32412;51.478;5.694;2024-01-15T02:01:08;1.20;99.90
46676;DHT22;32412;51.478;5.694;2024-01-15T02:03:34;1.20;99.90
46676;DHT22;32412;51.478;5.694;2024-01-15T02:06:00;1.10;99.90
46676;DHT22;32412;51.478;5.694;2024-01-15T02:08:27;1.10;99.90
46676;DHT22;32412;51.478;5.694;2024-01-15T02:10:52;1.10;99.90
46676;DHT22;32412;51.478;5.694;2024-01-15T02:13:19;1.10;99.90
46676;DHT22;32412;51.478;5.694;2024-01-15T02:15:45;1.10;99.90
46676;DHT22;32412;51.478;5.694;2024-01-15T02:18:11;1.10;99.90
46676;DHT22;32412;51.478;5.694;2024-01-15T02:20:37;1.10;99.90
46676;DHT22;32412;51.478;5.694;2024-01-15T02:23:13;1.10;99.90
46676;DHT22;32412;51.478;5.694;2024-01-15T02:25:46;1.10;99.90
46676;DHT22;32412;51.478;5.694;2024-01-15T02:28:16;1.10;99.90
46676;DHT22;32412;51.478;5.694;2024-01-15T02:30:43;1.20;99.90
46676;DHT22;32412;51.478;5.694;2024-01-15T02:33:09;1.10;99.90
46676;DHT22;32412;51.478;5.694;2024-01-15T02:35:36;1.10;99.90
46676;DHT22;32412;51.478;5.694;2024-01-15T02:38:05;1.10;99.90
46676;DHT22;32412;51.478;5.694;2024-01-15T02:40:31;1.10;99.90
46676;DHT22;32412;51.478;5.694;2024-01-15T02:42:56;1.10;99.90
46676;DHT22;32412;51.478;5.694;2024-01-15T02:45:23;1.20;99.90
46676;DHT22;32412;51.478;5.694;2024-01-15T02:47:49;1.10;99.90
46676;DHT22;32412;51.478;5.694;2024-01-15T02:50:15;1.10;99.90
46676;DHT22;32412;51.478;5.694;2024-01-15T02:52:44;1.10;99.90
46676;DHT22;32412;51.478;5.694;2024-01-15T02:55:10;1.10;99.90
46676;DHT22;32412;51.478;5.694;2024-01-15T02:57:35;0.90;99.90
46676;DHT22;32412;51.478;5.694;2024-01-15T03:00:01;1.00;99.90
46676;DHT22;32412;51.478;5.694;2024-01-15T03:02:28;1.00;99.90
46676;DHT22;32412;51.478;5.694;2024-01-15T03:04:57;0.90;99.90
46676;DHT22;32412;51.478;5.694;2024-01-15T03:07:22;0.90;99.90
46676;DHT22;32412;51.478;5.694;2024-01-15T03:09:48;0.90;99.90
46676;DHT22;32412;51.478;5.694;2024-01-15T03:12:14;0.90;99.90
46676;DHT22;32412;51.478;5.694;2024-01-15T03:14:39;0.90;99.90
46676;DHT22;32412;51.478;5.694;2024-01-15T03:17:05;0.90;99.90
46676;DHT22;32412;51.478;5.694;2024-01-15T03:19:34;0.90;99.90
46676;DHT22;32412;51.478;5.694;2024-01-15T03:21:59;0.90;99.90
46676;DHT22;32412;51.478;5.694;2024-01-15T03:24:26;0.90;99.90
46676;DHT22;32412;51.478;5.694;2024-01-15T03:26:51;0.90;99.90
46676;DHT22;32412;51.478;5.694;2024-01-15T03:29:17;0.90;99.90
46676;DHT22;32412;51.478;5.694;2024-01-15T03:31:43;0.90;99.90
46676;DHT22;32412;51.478;5.694;2024-01-15T03:34:08;0.90;99.90
46676;DHT22;32412;51.478;5.694;2024-01-15T03:36:34;0.90;99.90
46676;DHT22;32412;51.478;5.694;2024-01-15T03:39:00;0.90;99.90
46676;DHT22;32412;51.478;5.694;2024-01-15T03:41:25;0.90;99.90
46676;DHT22;32412;51.478;5.694;2024-01-15T03:43:51;0.90;99.90
46676;DHT22;32412;51.478;5.694;2024-01-15T03:46:17;0.90;99.90
46676;DHT22;32412;51.478;5.694;2024-01-15T03:48:42;0.90;99.90
46676;DHT22;32412;51.478;5.694;2024-01-15T03:51:08;0.90;99.90
46676;DHT22;32412;51.478;5.694;2024-01-15T03:53:33;0.90;99.90
46676;DHT22;32412;51.478;5.694;2024-01-15T03:55:59;0.90;99.90
46676;DHT22;32412;51.478;5.694;2024-01-15T03:58:25;0.90;99.90
46676;DHT22;32412;51.478;5.694;2024-01-15T04:00:50;0.90;99.90
46676;DHT22;32412;51.478;5.694;2024-01-15T04:03:16;1.00;99.90
46676;DHT22;32412;51.478;5.694;2024-01-15T04:05:42;1.00;99.90
46676;DHT22;32412;51.478;5.694;2024-01-15T04:08:08;1.00;99.90
46676;DHT22;32412;51.478;5.694;2024-01-15T04:10:33;1.10;99.90
46676;DHT22;32412;51.478;5.694;2024-01-15T04:12:59;1.10;99.90
46676;DHT22;32412;51.478;5.694;2024-01-15T04:15:27;1.20;99.90
46676;DHT22;32412;51.478;5.694;2024-01-15T04:17:52;1.20;99.90
46676;DHT22;32412;51.478;5.694;2024-01-15T04:20:18;1.30;99.90
46676;DHT22;32412;51.478;5.694;2024-01-15T04:22:44;1.30;99.90
46676;DHT22;32412;51.478;5.694;2024-01-15T04:25:09;1.30;99.90
46676;DHT22;32412;51.478;5.694;2024-01-15T04:27:35;1.30;99.90
46676;DHT22;32412;51.478;5.694;2024-01-15T04:30:01;1.30;99.90
46676;DHT22;32412;51.478;5.694;2024-01-15T04:32:26;1.30;99.90
46676;DHT22;32412;51.478;5.694;2024-01-15T04:34:52;1.30;99.90
46676;DHT22;32412;51.478;5.694;2024-01-15T04:37:17;1.40;99.90
46676;DHT22;32412;51.478;5.694;2024-01-15T04:39:43;1.40;99.90
46676;DHT22;32412;51.478;5.694;2024-01-15T04:42:09;1.40;99.90
46676;DHT22;32412;51.478;5.694;2024-01-15T04:44:34;1.40;99.90
46676;DHT22;32412;51.478;5.694;2024-01-15T04:47:00;1.50;99.90
46676;DHT22;32412;51.478;5.694;2024-01-15T04:49:26;1.50;99.90
46676;DHT22;32412;51.478;5.694;2024-01-15T04:51:52;1.50;99.90
46676;DHT22;32412;51.478;5.694;2024-01-15T04:54:18;1.50;99.90
46676;DHT22;32412;51.478;5.694;2024-01-15T04:56:44;1.60;99.90
46676;DHT22;32412;51.478;5.694;2024-01-15T04:59:10;1.50;99.90
46676;DHT22;32412;51.478;5.694;2024-01-15T05:01:36;1.50;99.90
46676;DHT22;32412;51.478;5.694;2024-01-15T05:04:02;1.60;99.90
46676;DHT22;32412;51.478;5.694;2024-01-15T05:06:28;1.60;99.90
46676;DHT22;32412;51.478;5.694;2024-01-15T05:08:54;1.60;99.90
46676;DHT22;32412;51.478;5.694;2024-01-15T05:11:20;1.60;99.90
46676;DHT22;32412;51.478;5.694;2024-01-15T05:13:46;1.60;99.90
46676;DHT22;32412;51.478;5.694;2024-01-15T05:16:11;1.60;99.90
46676;DHT22;32412;51.478;5.694;2024-01-15T05:18:37;1.50;99.90
46676;DHT22;32412;51.478;5.694;2024-01-15T05:21:03;1.50;99.90
46676;DHT22;32412;51.478;5.694;2024-01-15T05:23:30;1.40;99.90
46676;DHT22;32412;51.478;5.694;2024-01-15T05:25:56;1.30;99.90
46676;DHT22;32412;51.478;5.694;2024-01-15T05:28:22;1.30;99.90
46676;DHT22;32412;51.478;5.694;2024-01-15T05:30:48;1.30;99.90
46676;DHT22;32412;51.478;5.694;2024-01-15T05:33:16;1.30;99.90
46676;DHT22;32412;51.478;5.694;2024-01-15T05:35:42;1.30;99.90
46676;DHT22;32412;51.478;5.694;2024-01-15T05:38:07;1.30;99.90
46676;DHT22;32412;51.478;5.694;2024-01-15T05:40:33;1.30;99.90
46676;DHT22;32412;51.478;5.694;2024-01-15T05:42:59;1.30;99.90
46676;DHT22;32412;51.478;5.694;2024-01-15T05:45:26;1.30;99.90
46676;DHT22;32412;51.478;5.694;2024-01-15T05:47:52;1.30;99.90
46676;DHT22;32412;51.478;5.694;2024-01-15T05:50:17;1.30;99.90
46676;DHT22;32412;51.478;5.694;2024-01-15T05:52:43;1.20;99.90
46676;DHT22;32412;51.478;5.694;2024-01-15T05:55:09;1.20;99.90
46676;DHT22;32412;51.478;5.694;2024-01-15T05:57:35;1.20;99.90
46676;DHT22;32412;51.478;5.694;2024-01-15T06:00:01;1.20;99.90
46676;DHT22;32412;51.478;5.694;2024-01-15T06:02:28;1.10;99.90
46676;DHT22;32412;51.478;5.694;2024-01-15T06:04:53;1.10;99.90
46676;DHT22;32412;51.478;5.694;2024-01-15T06:07:19;1.10;99.90
46676;DHT22;32412;51.478;5.694;2024-01-15T06:09:44;1.10;99.90
46676;DHT22;32412;51.478;5.694;2024-01-15T06:12:10;1.10;99.90
46676;DHT22;32412;51.478;5.694;2024-01-15T06:14:36;1.20;99.90
46676;DHT22;32412;51.478;5.694;2024-01-15T06:17:01;1.20;99.90
46676;DHT22;32412;51.478;5.694;2024-01-15T06:19:28;1.10;99.90
46676;DHT22;32412;51.478;5.694;2024-01-15T06:21:53;1.10;99.90
46676;DHT22;32412;51.478;5.694;2024-01-15T06:24:19;1.10;99.90
46676;DHT22;32412;51.478;5.694;2024-01-15T06:26:46;1.10;99.90
46676;DHT22;32412;51.478;5.694;2024-01-15T06:29:12;1.10;99.90
46676;DHT22;32412;51.478;5.694;2024-01-15T06:31:38;1.10;99.90
46676;DHT22;32412;51.478;5.694;2024-01-15T06:34:04;1.10;99.90
46676;DHT22;32412;51.478;5.694;2024-01-15T06:36:30;1.10;99.90
46676;DHT22;32412;51.478;5.694;2024-01-15T06:38:55;1.10;99.90
46676;DHT22;32412;51.478;5.694;2024-01-15T06:41:21;1.10;99.90
46676;DHT22;32412;51.478;5.694;2024-01-15T06:43:47;1.10;99.90
46676;DHT22;32412;51.478;5.694;2024-01-15T06:46:22;1.10;99.90
46676;DHT22;32412;51.478;5.694;2024-01-15T06:48:48;1.20;99.90
46676;DHT22;32412;51.478;5.694;2024-01-15T06:51:15;1.20;99.90
46676;DHT22;32412;51.478;5.694;2024-01-15T06:53:41;1.20;99.90
46676;DHT22;32412;51.478;5.694;2024-01-15T06:56:06;1.30;99.90
46676;DHT22;32412;51.478;5.694;2024-01-15T06:58:32;1.30;99.90
46676;DHT22;32412;51.478;5.694;2024-01-15T07:00:59;1.40;99.90
46676;DHT22;32412;51.478;5.694;2024-01-15T07:03:25;1.40;99.90
46676;DHT22;32412;51.478;5.694;2024-01-15T07:05:50;1.40;99.90
46676;DHT22;32412;51.478;5.694;2024-01-15T07:08:16;1.40;99.90
46676;DHT22;32412;51.478;5.694;2024-01-15T07:10:42;1.30;99.90
46676;DHT22;32412;51.478;5.694;2024-01-15T07:13:07;1.30;99.90
46676;DHT22;32412;51.478;5.694;2024-01-15T07:15:33;1.30;99.90
46676;DHT22;32412;51.478;5.694;2024-01-15T07:17:58;1.20;99.90
46676;DHT22;32412;51.478;5.694;2024-01-15T07:20:24;1.20;99.90
46676;DHT22;32412;51.478;5.694;2024-01-15T07:22:50;1.20;99.90
46676;DHT22;32412;51.478;5.694;2024-01-15T07:25:16;1.20;99.90
46676;DHT22;32412;51.478;5.694;2024-01-15T07:27:42;1.10;99.90
46676;DHT22;32412;51.478;5.694;2024-01-15T07:30:11;1.10;99.90
46676;DHT22;32412;51.478;5.694;2024-01-15T07:32:40;1.10;99.90
46676;DHT22;32412;51.478;5.694;2024-01-15T07:35:06;1.10;99.90
46676;DHT22;32412;51.478;5.694;2024-01-15T07:37:32;1.00;99.90
46676;DHT22;32412;51.478;5.694;2024-01-15T07:39:59;1.00;99.90
46676;DHT22;32412;51.478;5.694;2024-01-15T07:42:24;1.00;99.90
46676;DHT22;32412;51.478;5.694;2024-01-15T07:44:50;0.90;99.90
46676;DHT22;32412;51.478;5.694;2024-01-15T07:47:17;0.90;99.90
46676;DHT22;32412;51.478;5.694;2024-01-15T07:49:42;0.90;99.90
46676;DHT22;32412;51.478;5.694;2024-01-15T07:52:08;0.90;99.90
46676;DHT22;32412;51.478;5.694;2024-01-15T07:54:34;0.90;99.90
46676;DHT22;32412;51.478;5.694;2024-01-15T07:57:01;0.90;99.90
46676;DHT22;32412;51.478;5.694;2024-01-15T07:59:30;0.90;99.90
46676;DHT22;32412;51.478;5.694;2024-01-15T08:01:58;1.00;99.90
46676;DHT22;32412;51.478;5.694;2024-01-15T08:04:24;1.00;99.90
46676;DHT22;32412;51.478;5.694;2024-01-15T08:06:50;0.90;99.90
46676;DHT22;32412;51.478;5.694;2024-01-15T08:09:16;0.90;99.90
46676;DHT22;32412;51.478;5.694;2024-01-15T08:11:42;0.90;99.90
46676;DHT22;32412;51.478;5.694;2024-01-15T08:14:09;1.00;99.90
46676;DHT22;32412;51.478;5.694;2024-01-15T08:16:35;1.00;99.90
46676;DHT22;32412;51.478;5.694;2024-01-15T08:19:00;1.00;99.90
46676;DHT22;32412;51.478;5.694;2024-01-15T08:21:26;1.10;99.90
46676;DHT22;32412;51.478;5.694;2024-01-15T08:23:56;1.10;99.90
46676;DHT22;32412;51.478;5.694;2024-01-15T08:26:22;1.10;99.90
46676;DHT22;32412;51.478;5.694;2024-01-15T08:28:48;1.20;99.90
46676;DHT22;32412;51.478;5.694;2024-01-15T08:31:13;1.20;99.90
46676;DHT22;32412;51.478;5.694;2024-01-15T08:33:39;1.20;99.90
46676;DHT22;32412;51.478;5.694;2024-01-15T08:36:05;1.20;99.90
46676;DHT22;32412;51.478;5.694;2024-01-15T08:38:31;1.20;99.90
46676;DHT22;32412;51.478;5.694;2024-01-15T08:40:57;1.10;99.90
46676;DHT22;32412;51.478;5.694;2024-01-15T08:43:24;1.00;99.90
46676;DHT22;32412;51.478;5.694;2024-01-15T08:45:50;0.90;99.90
46676;DHT22;32412;51.478;5.694;2024-01-15T08:48:16;0.90;99.90
46676;DHT22;32412;51.478;5.694;2024-01-15T08:50:42;0.90;99.90
46676;DHT22;32412;51.478;5.694;2024-01-15T08:53:14;0.90;99.90
46676;DHT22;32412;51.478;5.694;2024-01-15T08:55:40;0.90;99.90
46676;DHT22;32412;51.478;5.694;2024-01-15T08:58:08;1.00;99.90
46676;DHT22;32412;51.478;5.694;2024-01-15T09:00:34;1.00;99.90
46676;DHT22;32412;51.478;5.694;2024-01-15T09:03:00;1.10;99.90
46676;DHT22;32412;51.478;5.694;2024-01-15T09:05:26;1.10;99.90
46676;DHT22;32412;51.478;5.694;2024-01-15T09:07:51;1.20;99.90
46676;DHT22;32412;51.478;5.694;2024-01-15T09:10:18;1.20;99.90
46676;DHT22;32412;51.478;5.694;2024-01-15T09:12:44;1.20;99.90
46676;DHT22;32412;51.478;5.694;2024-01-15T09:15:09;1.20;99.90
46676;DHT22;32412;51.478;5.694;2024-01-15T09:17:35;1.20;99.90
46676;DHT22;32412;51.478;5.694;2024-01-15T09:20:01;1.20;99.90
46676;DHT22;32412;51.478;5.694;2024-01-15T09:22:29;1.30;99.90
46676;DHT22;32412;51.478;5.694;2024-01-15T09:24:55;1.30;99.90
46676;DHT22;32412;51.478;5.694;2024-01-15T09:27:21;1.30;99.90
46676;DHT22;32412;51.478;5.694;2024-01-15T09:29:47;1.30;99.90
46676;DHT22;32412;51.478;5.694;2024-01-15T09:32:12;1.30;99.90
46676;DHT22;32412;51.478;5.694;2024-01-15T09:34:38;1.40;99.90
46676;DHT22;32412;51.478;5.694;2024-01-15T09:37:04;1.40;99.90
46676;DHT22;32412;51.478;5.694;2024-01-15T09:39:30;1.40;99.90
46676;DHT22;32412;51.478;5.694;2024-01-15T09:41:57;1.50;99.90
46676;DHT22;32412;51.478;5.694;2024-01-15T09:44:23;1.60;99.90
46676;DHT22;32412;51.478;5.694;2024-01-15T09:46:49;1.60;99.90
46676;DHT22;32412;51.478;5.694;2024-01-15T09:49:17;1.60;99.90
46676;DHT22;32412;51.478;5.694;2024-01-15T09:51:43;1.70;99.90
46676;DHT22;32412;51.478;5.694;2024-01-15T09:54:09;1.70;99.90
46676;DHT22;32412;51.478;5.694;2024-01-15T09:56:35;1.70;99.90
46676;DHT22;32412;51.478;5.694;2024-01-15T09:59:01;1.80;99.90
46676;DHT22;32412;51.478;5.694;2024-01-15T10:01:28;1.80;99.90
46676;DHT22;32412;51.478;5.694;2024-01-15T10:03:54;1.80;99.90
46676;DHT22;32412;51.478;5.694;2024-01-15T10:06:21;1.70;99.90
46676;DHT22;32412;51.478;5.694;2024-01-15T10:08:49;1.80;99.90
46676;DHT22;32412;51.478;5.694;2024-01-15T10:11:15;1.90;99.90
46676;DHT22;32412;51.478;5.694;2024-01-15T10:13:43;1.90;99.90
46676;DHT22;32412;51.478;5.694;2024-01-15T10:16:09;1.90;99.90
46676;DHT22;32412;51.478;5.694;2024-01-15T10:18:37;1.90;99.90
46676;DHT22;32412;51.478;5.694;2024-01-15T10:21:06;1.90;99.90
46676;DHT22;32412;51.478;5.694;2024-01-15T10:23:39;2.00;99.90
46676;DHT22;32412;51.478;5.694;2024-01-15T10:26:05;2.60;99.90
46676;DHT22;32412;51.478;5.694;2024-01-15T10:28:31;2.80;99.90
46676;DHT22;32412;51.478;5.694;2024-01-15T10:30:58;2.90;99.90
46676;DHT22;32412;51.478;5.694;2024-01-15T10:33:25;3.40;99.90
46676;DHT22;32412;51.478;5.694;2024-01-15T10:35:54;3.50;99.90
46676;DHT22;32412;51.478;5.694;2024-01-15T10:38:21;4.10;99.90
46676;DHT22;32412;51.478;5.694;2024-01-15T10:40:50;4.40;99.90
46676;DHT22;32412;51.478;5.694;2024-01-15T10:43:16;4.60;99.90
46676;DHT22;32412;51.478;5.694;2024-01-15T10:45:47;4.90;99.90
46676;DHT22;32412;51.478;5.694;2024-01-15T10:48:14;4.20;99.90
46676;DHT22;32412;51.478;5.694;2024-01-15T10:50:41;3.80;99.90
46676;DHT22;32412;51.478;5.694;2024-01-15T10:53:08;3.50;99.90
46676;DHT22;32412;51.478;5.694;2024-01-15T10:55:38;3.20;99.90
46676;DHT22;32412;51.478;5.694;2024-01-15T10:58:08;3.10;99.90
46676;DHT22;32412;51.478;5.694;2024-01-15T11:00:35;2.90;99.90
46676;DHT22;32412;51.478;5.694;2024-01-15T11:03:05;3.00;99.90
46676;DHT22;32412;51.478;5.694;2024-01-15T11:05:37;3.00;99.90
46676;DHT22;32412;51.478;5.694;2024-01-15T11:08:06;3.00;99.90
46676;DHT22;32412;51.478;5.694;2024-01-15T11:10:47;2.90;99.90
46676;DHT22;32412;51.478;5.694;2024-01-15T11:13:21;2.80;99.90
46676;DHT22;32412;51.478;5.694;2024-01-15T11:16:07;2.80;99.90
46676;DHT22;32412;51.478;5.694;2024-01-15T11:18:48;2.70;99.90
46676;DHT22;32412;51.478;5.694;2024-01-15T11:21:27;2.70;99.90
46676;DHT22;32412;51.478;5.694;2024-01-15T11:23:57;2.70;99.90
46676;DHT22;32412;51.478;5.694;2024-01-15T11:26:37;2.80;99.90
46676;DHT22;32412;51.478;5.694;2024-01-15T11:29:09;2.70;99.90
46676;DHT22;32412;51.478;5.694;2024-01-15T11:34:05;4.20;99.90
46676;DHT22;32412;51.478;5.694;2024-01-15T11:37:00;4.50;99.90
46676;DHT22;32412;51.478;5.694;2024-01-15T11:42:02;5.80;99.90
46676;DHT22;32412;51.478;5.694;2024-01-15T11:44:29;6.10;99.90
46676;DHT22;32412;51.478;5.694;2024-01-15T11:47:05;5.90;99.90
46676;DHT22;32412;51.478;5.694;2024-01-15T11:52:05;4.20;99.90
46676;DHT22;32412;51.478;5.694;2024-01-15T11:54:33;3.60;99.90
46676;DHT22;32412;51.478;5.694;2024-01-15T11:57:06;3.30;99.90
46676;DHT22;32412;51.478;5.694;2024-01-15T11:59:34;3.00;99.90
46676;DHT22;32412;51.478;5.694;2024-01-15T12:02:00;2.80;99.90
46676;DHT22;32412;51.478;5.694;2024-01-15T12:04:25;2.70;99.90
46676;DHT22;32412;51.478;5.694;2024-01-15T12:06:52;2.70;99.90
46676;DHT22;32412;51.478;5.694;2024-01-15T12:09:21;2.70;99.90
46676;DHT22;32412;51.478;5.694;2024-01-15T12:11:53;2.80;99.90
46676;DHT22;32412;51.478;5.694;2024-01-15T12:14:21;3.00;99.90
46676;DHT22;32412;51.478;5.694;2024-01-15T12:16:47;3.10;99.90
46676;DHT22;32412;51.478;5.694;2024-01-15T12:19:15;2.90;99.90
46676;DHT22;32412;51.478;5.694;2024-01-15T12:21:40;3.10;99.90
46676;DHT22;32412;51.478;5.694;2024-01-15T12:24:07;3.00;99.90
46676;DHT22;32412;51.478;5.694;2024-01-15T12:26:34;2.80;99.90
46676;DHT22;32412;51.478;5.694;2024-01-15T12:29:02;2.70;99.90
46676;DHT22;32412;51.478;5.694;2024-01-15T12:31:28;2.50;99.90
46676;DHT22;32412;51.478;5.694;2024-01-15T12:33:56;2.20;99.90
46676;DHT22;32412;51.478;5.694;2024-01-15T12:36:21;2.10;99.90
46676;DHT22;32412;51.478;5.694;2024-01-15T12:38:47;2.00;99.90
46676;DHT22;32412;51.478;5.694;2024-01-15T12:41:13;2.00;99.90
46676;DHT22;32412;51.478;5.694;2024-01-15T12:43:39;2.10;99.90
46676;DHT22;32412;51.478;5.694;2024-01-15T12:46:06;2.00;99.90
46676;DHT22;32412;51.478;5.694;2024-01-15T12:48:31;1.90;99.90
46676;DHT22;32412;51.478;5.694;2024-01-15T12:50:57;1.90;99.90
46676;DHT22;32412;51.478;5.694;2024-01-15T12:53:23;1.90;99.90
46676;DHT22;32412;51.478;5.694;2024-01-15T12:55:48;1.80;99.90
46676;DHT22;32412;51.478;5.694;2024-01-15T12:58:14;1.60;99.90
46676;DHT22;32412;51.478;5.694;2024-01-15T13:00:42;1.60;99.90
46676;DHT22;32412;51.478;5.694;2024-01-15T13:03:08;1.50;99.90
46676;DHT22;32412;51.478;5.694;2024-01-15T13:05:34;1.40;99.90
46676;DHT22;32412;51.478;5.694;2024-01-15T13:08:01;1.50;99.90
46676;DHT22;32412;51.478;5.694;2024-01-15T13:10:29;1.40;99.90
46676;DHT22;32412;51.478;5.694;2024-01-15T13:12:55;1.40;99.90
46676;DHT22;32412;51.478;5.694;2024-01-15T13:15:21;1.30;99.90
46676;DHT22;32412;51.478;5.694;2024-01-15T13:17:47;1.20;99.90
46676;DHT22;32412;51.478;5.694;2024-01-15T13:20:12;1.20;99.90
46676;DHT22;32412;51.478;5.694;2024-01-15T13:22:38;1.10;99.90
46676;DHT22;32412;51.478;5.694;2024-01-15T13:25:06;1.10;99.90
46676;DHT22;32412;51.478;5.694;2024-01-15T13:27:33;1.10;99.90
46676;DHT22;32412;51.478;5.694;2024-01-15T13:30:00;1.10;99.90
46676;DHT22;32412;51.478;5.694;2024-01-15T13:32:28;1.10;99.90
46676;DHT22;32412;51.478;5.694;2024-01-15T13:34:55;1.20;99.90
46676;DHT22;32412;51.478;5.694;2024-01-15T13:37:22;1.20;99.90
46676;DHT22;32412;51.478;5.694;2024-01-15T13:39:50;1.20;99.90
46676;DHT22;32412;51.478;5.694;2024-01-15T13:42:17;1.20;99.90
46676;DHT22;32412;51.478;5.694;2024-01-15T13:44:43;1.20;99.90
46676;DHT22;32412;51.478;5.694;2024-01-15T13:47:08;1.20;99.90
46676;DHT22;32412;51.478;5.694;2024-01-15T13:49:34;1.20;99.90
46676;DHT22;32412;51.478;5.694;2024-01-15T13:52:02;1.30;99.90
46676;DHT22;32412;51.478;5.694;2024-01-15T13:54:29;1.30;99.90
46676;DHT22;32412;51.478;5.694;2024-01-15T13:56:56;1.60;99.90
46676;DHT22;32412;51.478;5.694;2024-01-15T13:59:21;1.60;99.90
46676;DHT22;32412;51.478;5.694;2024-01-15T14:01:48;1.70;99.90
46676;DHT22;32412;51.478;5.694;2024-01-15T14:04:14;1.70;99.90
46676;DHT22;32412;51.478;5.694;2024-01-15T14:06:39;1.80;99.90
46676;DHT22;32412;51.478;5.694;2024-01-15T14:09:05;1.80;99.90
46676;DHT22;32412;51.478;5.694;2024-01-15T14:11:31;1.90;99.90
46676;DHT22;32412;51.478;5.694;2024-01-15T14:13:57;1.80;99.90
46676;DHT22;32412;51.478;5.694;2024-01-15T14:16:22;1.60;99.90
46676;DHT22;32412;51.478;5.694;2024-01-15T14:18:48;1.50;99.90
46676;DHT22;32412;51.478;5.694;2024-01-15T14:21:14;1.60;99.90
46676;DHT22;32412;51.478;5.694;2024-01-15T14:23:40;1.70;99.90
46676;DHT22;32412;51.478;5.694;2024-01-15T14:26:06;2.00;99.90
46676;DHT22;32412;51.478;5.694;2024-01-15T14:28:31;2.50;99.90
46676;DHT22;32412;51.478;5.694;2024-01-15T14:30:57;3.00;99.90
46676;DHT22;32412;51.478;5.694;2024-01-15T14:33:26;3.30;99.90
46676;DHT22;32412;51.478;5.694;2024-01-15T14:35:53;3.60;99.90
46676;DHT22;32412;51.478;5.694;2024-01-15T14:38:18;3.90;99.90
46676;DHT22;32412;51.478;5.694;2024-01-15T14:40:44;3.80;99.90
46676;DHT22;32412;51.478;5.694;2024-01-15T14:43:10;3.50;99.90
46676;DHT22;32412;51.478;5.694;2024-01-15T14:45:36;3.20;99.90
46676;DHT22;32412;51.478;5.694;2024-01-15T14:48:02;2.90;99.90
46676;DHT22;32412;51.478;5.694;2024-01-15T14:50:28;2.70;99.90
46676;DHT22;32412;51.478;5.694;2024-01-15T14:52:53;2.50;99.90
46676;DHT22;32412;51.478;5.694;2024-01-15T14:55:19;2.20;99.90
46676;DHT22;32412;51.478;5.694;2024-01-15T14:57:45;2.10;99.90
46676;DHT22;32412;51.478;5.694;2024-01-15T15:00:11;2.00;99.90
46676;DHT22;32412;51.478;5.694;2024-01-15T15:02:39;2.00;99.90
46676;DHT22;32412;51.478;5.694;2024-01-15T15:05:05;2.00;99.90
46676;DHT22;32412;51.478;5.694;2024-01-15T15:07:31;2.00;99.90
46676;DHT22;32412;51.478;5.694;2024-01-15T15:09:56;2.10;99.90
46676;DHT22;32412;51.478;5.694;2024-01-15T15:12:22;2.30;99.90
46676;DHT22;32412;51.478;5.694;2024-01-15T15:14:48;2.30;99.90
46676;DHT22;32412;51.478;5.694;2024-01-15T15:17:14;2.20;99.90
46676;DHT22;32412;51.478;5.694;2024-01-15T15:19:40;2.10;99.90
46676;DHT22;32412;51.478;5.694;2024-01-15T15:22:06;1.90;99.90
46676;DHT22;32412;51.478;5.694;2024-01-15T15:24:36;1.90;99.90
46676;DHT22;32412;51.478;5.694;2024-01-15T15:27:02;1.80;99.90
46676;DHT22;32412;51.478;5.694;2024-01-15T15:29:28;1.80;99.90
46676;DHT22;32412;51.478;5.694;2024-01-15T15:31:54;1.80;99.90
46676;DHT22;32412;51.478;5.694;2024-01-15T15:34:19;1.70;99.90
46676;DHT22;32412;51.478;5.694;2024-01-15T15:36:45;1.60;99.90
46676;DHT22;32412;51.478;5.694;2024-01-15T15:39:11;1.70;99.90
46676;DHT22;32412;51.478;5.694;2024-01-15T15:41:37;1.60;99.90
46676;DHT22;32412;51.478;5.694;2024-01-15T15:44:03;1.50;99.90
46676;DHT22;32412;51.478;5.694;2024-01-15T15:46:29;1.40;99.90
46676;DHT22;32412;51.478;5.694;2024-01-15T15:48:54;1.40;99.90